createdAt,value
2019-03-18T00:00:33.913Z,95419.10
2019-03-18T00:03:03.354Z,95423.38
2019-03-18T00:05:32.906Z,95431.45
2019-03-18T00:08:02.317Z,95433.66
2019-03-18T00:10:32.188Z,95430.15
2019-03-18T00:13:01.595Z,95403.67
2019-03-18T00:15:31.042Z,95413.45
2019-03-18T00:18:00.451Z,95433.97
2019-03-18T00:20:29.900Z,95424.24
2019-03-18T00:22:59.308Z,95429.39
2019-03-18T00:25:28.751Z,95446.00
2019-03-18T00:27:58.196Z,95445.88
2019-03-18T00:30:33.528Z,95440.42
2019-03-18T00:33:03.363Z,95434.47
2019-03-18T00:35:32.801Z,95430.22
2019-03-18T00:38:02.198Z,95441.47
2019-03-18T00:40:31.639Z,95451.22
2019-03-18T00:43:01.045Z,95453.72
2019-03-18T00:45:30.488Z,95441.55
2019-03-18T00:47:59.897Z,95451.02
2019-03-18T00:50:29.371Z,95443.37
2019-03-18T00:52:58.784Z,95441.81
2019-03-18T00:55:28.225Z,95450.37
2019-03-18T00:57:57.637Z,95457.84
2019-03-18T01:00:27.205Z,95465.87
2019-03-18T01:02:56.631Z,95481.45
2019-03-18T01:05:26.099Z,95480.34
2019-03-18T01:07:55.520Z,95485.41
2019-03-18T01:10:24.956Z,95492.19
2019-03-18T01:12:54.373Z,95486.94
2019-03-18T01:15:28.238Z,95480.85
2019-03-18T01:17:54.998Z,95477.47
2019-03-18T01:20:24.544Z,95492.60
2019-03-18T01:22:53.935Z,95480.84
2019-03-18T01:25:23.381Z,95485.38
2019-03-18T01:27:52.806Z,95490.44
2019-03-18T01:30:22.274Z,95493.03
2019-03-18T01:32:51.766Z,95476.93
2019-03-18T01:35:21.212Z,95478.36
2019-03-18T01:37:50.628Z,95473.05
2019-03-18T01:40:20.085Z,95466.65
2019-03-18T01:42:49.605Z,95466.29
2019-03-18T01:45:19.070Z,95468.77
2019-03-18T01:47:48.495Z,95468.56
2019-03-18T01:50:17.929Z,95473.18
2019-03-18T01:52:47.356Z,95465.55
2019-03-18T01:55:16.808Z,95470.78
2019-03-18T01:57:46.231Z,95468.20
2019-03-18T02:00:16.422Z,95460.97
2019-03-18T02:02:45.841Z,95457.31
2019-03-18T02:05:15.331Z,95464.09
2019-03-18T02:07:44.761Z,95467.63
2019-03-18T02:10:16.580Z,95452.49
2019-03-18T02:12:46.017Z,95463.81
2019-03-18T02:15:16.209Z,95465.98
2019-03-18T02:17:45.638Z,95464.13
2019-03-18T02:20:19.441Z,95460.70
2019-03-18T02:22:47.502Z,95462.41
2019-03-18T02:25:16.948Z,95471.80
2019-03-18T02:27:46.375Z,95462.72
2019-03-18T02:30:18.524Z,95463.98
2019-03-18T02:32:48.230Z,95460.75
2019-03-18T02:35:17.729Z,95457.16
2019-03-18T02:37:47.139Z,95471.41
2019-03-18T02:40:16.590Z,95476.63
2019-03-18T02:42:45.996Z,95479.63
2019-03-18T02:45:15.423Z,95479.05
2019-03-18T02:47:44.847Z,95472.73
2019-03-18T02:50:14.358Z,95477.31
2019-03-18T02:52:43.778Z,95486.09
2019-03-18T02:55:13.301Z,95486.52
2019-03-18T02:57:42.710Z,95491.30
2019-03-18T03:00:14.947Z,95487.41
2019-03-18T03:02:44.596Z,95494.46
2019-03-18T03:05:14.466Z,95497.69
2019-03-18T03:07:43.898Z,95496.59
2019-03-18T03:10:14.829Z,95505.34
2019-03-18T03:12:44.324Z,95503.51
2019-03-18T03:15:15.037Z,95496.89
2019-03-18T03:17:44.671Z,95490.66
2019-03-18T03:20:14.329Z,95492.62
2019-03-18T03:22:43.764Z,95495.89
2019-03-18T03:25:13.193Z,95494.66
2019-03-18T03:27:42.627Z,95502.73
2019-03-18T03:30:14.526Z,95491.56
2019-03-18T03:32:44.035Z,95474.23
2019-03-18T03:35:13.589Z,95478.55
2019-03-18T03:37:43.352Z,95473.41
2019-03-18T03:40:13.343Z,95465.49
2019-03-18T03:42:42.780Z,95464.23
2019-03-18T03:45:16.060Z,95463.79
2019-03-18T03:47:45.493Z,95468.06
2019-03-18T03:50:15.861Z,95477.40
2019-03-18T03:52:45.289Z,95487.59
2019-03-18T03:55:15.165Z,95490.38
2019-03-18T03:57:44.588Z,95492.18
2019-03-18T04:00:15.792Z,95488.86
2019-03-18T04:02:45.262Z,95483.20
2019-03-18T04:05:14.656Z,95480.33
2019-03-18T04:07:44.160Z,95481.70
2019-03-18T04:10:15.031Z,95479.77
2019-03-18T04:12:44.506Z,95483.04
2019-03-18T04:15:15.470Z,95491.56
2019-03-18T04:17:44.960Z,95482.14
2019-03-18T04:20:18.597Z,95494.86
2019-03-18T04:22:48.978Z,95484.64
2019-03-18T04:25:18.404Z,95481.66
2019-03-18T04:27:47.847Z,95480.48
2019-03-18T04:30:17.266Z,95487.80
2019-03-18T04:32:46.723Z,95489.75
2019-03-18T04:35:16.190Z,95484.75
2019-03-18T04:37:45.622Z,95484.75
2019-03-18T04:40:15.059Z,95495.11
2019-03-18T04:42:44.478Z,95488.06
2019-03-18T04:45:13.902Z,95487.25
2019-03-18T04:47:43.346Z,95489.67
2019-03-18T04:50:13.586Z,95488.45
2019-03-18T04:52:43.021Z,95493.50
2019-03-18T04:55:12.480Z,95490.55
2019-03-18T04:57:41.908Z,95501.95
2019-03-18T05:00:13.446Z,95501.80
2019-03-18T05:02:42.885Z,95513.80
2019-03-18T05:05:12.383Z,95523.20
2019-03-18T05:07:41.805Z,95523.34
2019-03-18T05:10:12.066Z,95516.24
2019-03-18T05:12:41.501Z,95519.80
2019-03-18T05:15:11.578Z,95517.23
2019-03-18T05:17:41.016Z,95519.17
2019-03-18T05:20:11.778Z,95519.55
2019-03-18T05:22:41.217Z,95519.55
2019-03-18T05:25:11.274Z,95510.80
2019-03-18T05:27:40.729Z,95499.10
2019-03-18T05:30:14.395Z,95489.25
2019-03-18T05:32:43.871Z,95475.88
2019-03-18T05:35:13.317Z,95474.13
2019-03-18T05:37:42.770Z,95480.36
2019-03-18T05:40:12.234Z,95490.66
2019-03-18T05:42:41.700Z,95509.10
2019-03-18T05:45:12.077Z,95494.63
2019-03-18T05:47:41.525Z,95502.05
2019-03-18T05:50:12.254Z,95505.00
2019-03-18T05:52:41.758Z,95500.88
2019-03-18T05:55:11.537Z,95497.36
2019-03-18T05:57:40.968Z,95507.50
2019-03-18T06:00:13.601Z,95520.37
2019-03-18T06:02:43.031Z,95524.69
2019-03-18T06:05:12.520Z,95526.80
2019-03-18T06:07:41.957Z,95541.59
2019-03-18T06:10:13.252Z,95546.00
2019-03-18T06:12:42.691Z,95545.09
2019-03-18T06:15:13.115Z,95531.42
2019-03-18T06:17:51.761Z,95544.59
2019-03-18T06:20:13.811Z,95551.36
2019-03-18T06:22:43.231Z,95544.81
2019-03-18T06:25:12.663Z,95550.67
2019-03-18T06:27:42.096Z,95552.95
2019-03-18T06:30:16.301Z,95558.26
2019-03-18T06:32:45.714Z,95547.44
2019-03-18T06:35:15.164Z,95551.98
2019-03-18T06:37:44.607Z,95554.86
2019-03-18T06:40:15.138Z,95552.67
2019-03-18T06:42:44.572Z,95550.17
2019-03-18T06:45:14.548Z,95558.25
2019-03-18T06:47:43.971Z,95560.53
2019-03-18T06:50:14.455Z,95570.63
2019-03-18T06:52:43.882Z,95571.91
2019-03-18T06:55:14.978Z,95586.97
2019-03-18T06:57:44.414Z,95580.09
2019-03-18T07:00:16.466Z,95589.53
2019-03-18T07:02:45.922Z,95587.44
2019-03-18T07:05:15.410Z,95582.28
2019-03-18T07:07:44.848Z,95582.34
2019-03-18T07:10:14.725Z,95591.27
2019-03-18T07:12:44.247Z,95596.28
2019-03-18T07:15:13.736Z,95591.02
2019-03-18T07:17:43.180Z,95596.99
2019-03-18T07:20:14.200Z,95598.82
2019-03-18T07:22:43.660Z,95596.31
2019-03-18T07:25:13.073Z,95605.83
2019-03-18T07:27:42.517Z,95606.25
2019-03-18T07:30:16.896Z,95608.42
2019-03-18T07:32:46.319Z,95613.44
2019-03-18T07:35:15.750Z,95622.05
2019-03-18T07:37:45.193Z,95614.00
2019-03-18T07:40:15.926Z,95623.34
2019-03-18T07:42:45.358Z,95618.52
2019-03-18T07:45:16.320Z,95612.44
2019-03-18T07:47:45.830Z,95612.53
2019-03-18T07:50:17.950Z,95614.25
2019-03-18T07:52:47.382Z,95612.79
2019-03-18T07:55:16.802Z,95604.90
2019-03-18T07:57:46.261Z,95610.78
2019-03-18T08:00:16.431Z,95611.20
2019-03-18T08:02:46.909Z,95621.21
2019-03-18T08:05:16.345Z,95626.53
2019-03-18T08:07:45.781Z,95626.63
2019-03-18T08:10:15.488Z,95628.63
2019-03-18T08:12:44.900Z,95636.37
2019-03-18T08:15:14.626Z,95642.70
2019-03-18T08:17:44.038Z,95641.38
2019-03-18T08:20:14.105Z,95654.95
2019-03-18T08:22:43.520Z,95647.13
2019-03-18T08:25:13.005Z,95637.75
2019-03-18T08:27:42.393Z,95660.94
2019-03-18T08:30:19.275Z,95664.45
2019-03-18T08:32:48.693Z,95662.35
2019-03-18T08:35:18.139Z,95660.16
2019-03-18T08:37:47.563Z,95663.95
2019-03-18T08:40:16.998Z,95664.50
2019-03-18T08:42:46.412Z,95675.45
2019-03-18T08:45:15.926Z,95675.45
2019-03-18T08:47:45.334Z,95682.39
2019-03-18T08:50:14.850Z,95676.55
2019-03-18T08:52:44.274Z,95679.47
2019-03-18T08:55:13.710Z,95683.72
2019-03-18T08:57:43.132Z,95684.63
2019-03-18T09:00:17.205Z,95687.22
2019-03-18T09:02:46.642Z,95688.27
2019-03-18T09:05:16.072Z,95684.43
2019-03-18T09:07:45.505Z,95685.25
2019-03-18T09:10:17.421Z,95683.41
2019-03-18T09:12:46.845Z,95683.80
2019-03-18T09:15:16.347Z,95696.91
2019-03-18T09:17:45.774Z,95694.11
2019-03-18T09:20:17.586Z,95692.73
2019-03-18T09:22:47.013Z,95695.09
2019-03-18T09:25:16.585Z,95697.45
2019-03-18T09:27:46.009Z,95699.12
2019-03-18T09:30:19.380Z,95694.21
2019-03-18T09:32:48.824Z,95700.02
2019-03-18T09:35:18.270Z,95718.80
2019-03-18T09:37:48.034Z,95714.52
2019-03-18T09:40:18.143Z,95709.00
2019-03-18T09:42:47.594Z,95709.78
2019-03-18T09:45:18.302Z,95720.17
2019-03-18T09:47:47.708Z,95713.97
2019-03-18T09:50:17.379Z,95711.41
2019-03-18T09:52:46.811Z,95714.59
2019-03-18T09:55:16.278Z,95708.44
2019-03-18T09:57:45.703Z,95701.23
2019-03-18T10:00:18.024Z,95704.99
2019-03-18T10:02:47.461Z,95713.83
2019-03-18T10:05:16.963Z,95711.00
2019-03-18T10:07:46.390Z,95723.91
2019-03-18T10:10:15.985Z,95712.12
2019-03-18T10:12:45.420Z,95698.41
2019-03-18T10:15:20.509Z,95709.46
2019-03-18T10:17:49.938Z,95690.29
2019-03-18T10:20:19.412Z,95698.39
2019-03-18T10:22:48.819Z,95698.52
2019-03-18T10:25:18.288Z,95705.19
2019-03-18T10:27:47.712Z,95706.94
2019-03-18T10:30:17.322Z,95719.34
2019-03-18T10:32:46.751Z,95724.05
2019-03-18T10:35:16.183Z,95720.42
2019-03-18T10:37:45.615Z,95716.11
2019-03-18T10:40:15.413Z,95715.14
2019-03-18T10:42:44.834Z,95718.77
2019-03-18T10:45:15.053Z,95714.58
2019-03-18T10:47:44.459Z,95725.64
2019-03-18T10:50:16.591Z,95720.22
2019-03-18T10:52:46.044Z,95723.30
2019-03-18T10:55:15.491Z,95723.09
2019-03-18T10:57:44.898Z,95727.16
2019-03-18T11:00:18.082Z,95734.52
2019-03-18T11:02:47.518Z,95742.81
2019-03-18T11:05:17.033Z,95749.84
2019-03-18T11:07:46.459Z,95744.58
2019-03-18T11:10:16.922Z,95768.16
2019-03-18T11:12:46.311Z,95769.06
2019-03-18T11:15:24.606Z,95776.52
2019-03-18T11:17:54.052Z,95774.64
2019-03-18T11:20:23.489Z,95781.80
2019-03-18T11:22:52.905Z,95776.04
2019-03-18T11:25:22.343Z,95775.53
2019-03-18T11:27:51.767Z,95770.80
2019-03-18T11:30:21.705Z,95769.88
2019-03-18T11:32:51.127Z,95771.78
2019-03-18T11:35:20.629Z,95772.22
2019-03-18T11:37:50.088Z,95771.92
2019-03-18T11:40:21.346Z,95772.44
2019-03-18T11:42:50.780Z,95772.73
2019-03-18T11:45:20.472Z,95766.22
2019-03-18T11:47:49.883Z,95752.39
2019-03-18T11:50:20.533Z,95754.03
2019-03-18T11:52:49.966Z,95755.95
2019-03-18T11:55:22.473Z,95741.98
2019-03-18T11:57:51.976Z,95739.58
2019-03-18T12:00:27.787Z,95746.39
2019-03-18T12:02:57.221Z,95743.07
2019-03-18T12:05:29.795Z,95752.98
2019-03-18T12:07:59.237Z,95754.76
2019-03-18T12:10:28.651Z,95752.38
2019-03-18T12:12:58.085Z,95748.36
2019-03-18T12:15:28.257Z,95749.73
2019-03-18T12:17:57.679Z,95752.59
2019-03-18T12:20:27.093Z,95758.56
2019-03-18T12:22:56.610Z,95752.47
2019-03-18T12:25:26.197Z,95758.81
2019-03-18T12:27:55.629Z,95759.86
2019-03-18T12:30:29.343Z,95756.27
2019-03-18T12:32:58.781Z,95748.50
2019-03-18T12:35:28.399Z,95750.56
2019-03-18T12:37:57.844Z,95751.34
2019-03-18T12:40:27.273Z,95753.70
2019-03-18T12:42:56.725Z,95757.27
2019-03-18T12:45:26.171Z,95751.25
2019-03-18T12:47:55.624Z,95757.80
2019-03-18T12:50:39.111Z,95747.33
2019-03-18T12:52:57.011Z,95740.52
2019-03-18T12:55:26.423Z,95745.12
2019-03-18T12:57:55.869Z,95746.53
2019-03-18T13:00:33.711Z,95743.23
2019-03-18T13:03:03.246Z,95740.33
2019-03-18T13:05:32.670Z,95745.27
2019-03-18T13:08:02.173Z,95749.80
2019-03-18T13:10:31.607Z,95745.30
2019-03-18T13:13:01.055Z,95746.63
2019-03-18T13:15:30.468Z,95750.95
2019-03-18T13:17:59.922Z,95750.28
2019-03-18T13:20:29.334Z,95752.08
2019-03-18T13:22:58.775Z,95745.05
2019-03-18T13:25:28.273Z,95743.62
2019-03-18T13:27:57.741Z,95752.62
2019-03-18T13:30:27.174Z,95747.05
2019-03-18T13:32:56.687Z,95740.33
2019-03-18T13:35:26.110Z,95743.53
2019-03-18T13:37:55.577Z,95745.91
2019-03-18T13:40:24.997Z,95750.24
2019-03-18T13:42:54.511Z,95744.61
2019-03-18T13:45:24.571Z,95740.63
2019-03-18T13:47:54.014Z,95749.82
2019-03-18T13:50:23.807Z,95750.40
2019-03-18T13:52:53.239Z,95750.22
2019-03-18T13:55:22.665Z,95752.36
2019-03-18T13:58:10.910Z,95743.78
2019-03-18T14:00:59.667Z,95750.73
2019-03-18T14:03:41.304Z,95735.13
2019-03-18T14:06:30.068Z,95766.41
2019-03-18T14:09:18.956Z,95696.34
2019-03-18T14:12:07.725Z,95764.40
2019-03-18T14:14:56.512Z,95714.24
2019-03-18T14:17:45.285Z,95762.36
2019-03-18T14:20:34.051Z,95762.15
2019-03-18T14:23:22.874Z,95769.23
2019-03-18T14:26:11.638Z,95711.74
2019-03-18T14:29:00.410Z,95760.06
2019-03-18T14:31:49.179Z,95765.76
2019-03-18T14:34:37.948Z,95773.90
2019-03-18T14:37:19.821Z,95689.27
2019-03-18T14:40:29.488Z,95762.24
2019-03-18T14:43:18.337Z,95737.62
2019-03-18T14:46:07.113Z,95784.91
2019-03-18T14:48:56.049Z,95765.65
2019-03-18T14:51:46.101Z,95755.91
2019-03-18T14:54:35.332Z,95774.16
2019-03-18T14:57:24.200Z,95763.65
2019-03-18T15:00:33.889Z,95749.88
2019-03-18T15:03:22.684Z,95771.45
2019-03-18T15:06:11.457Z,95752.01
2019-03-18T15:09:19.255Z,95723.44
2019-03-18T15:12:08.069Z,95769.94
2019-03-18T15:14:56.855Z,95765.28
2019-03-18T15:20:40.370Z,95788.88
2019-03-18T15:23:29.223Z,95773.33
2019-03-18T15:26:18.005Z,95766.22
2019-03-18T15:29:06.782Z,95779.08
2019-03-18T15:31:55.561Z,95726.70
2019-03-18T15:34:44.348Z,95741.63
2019-03-18T15:37:33.122Z,95787.50
2019-03-18T15:40:41.237Z,95798.56
2019-03-18T15:43:30.034Z,95743.97
2019-03-18T15:46:18.798Z,95815.42
2019-03-18T15:49:07.603Z,95820.75
2019-03-18T15:51:56.390Z,95823.22
2019-03-18T15:54:53.848Z,95837.39
2019-03-18T15:57:35.678Z,95845.86
2019-03-18T16:00:43.938Z,95843.94
2019-03-18T16:03:13.984Z,95844.14
2019-03-18T16:05:43.799Z,95850.91
2019-03-18T16:08:14.316Z,95854.49
2019-03-18T16:10:43.818Z,95858.06
2019-03-18T16:13:13.251Z,95867.12
2019-03-18T16:15:42.710Z,95865.75
2019-03-18T16:18:12.375Z,95864.38
2019-03-18T16:20:41.792Z,95870.95
2019-03-18T16:23:11.263Z,95868.90
2019-03-18T16:25:40.807Z,95875.62
2019-03-18T16:28:10.275Z,95883.58
2019-03-18T16:30:39.736Z,95883.16
2019-03-18T16:33:09.196Z,95884.72
2019-03-18T16:35:38.737Z,95894.73
2019-03-18T16:38:08.706Z,95895.10
2019-03-18T16:40:38.725Z,95889.98
2019-03-18T16:43:08.536Z,95898.58
2019-03-18T16:45:38.553Z,95895.11
2019-03-18T16:48:08.469Z,95896.97
2019-03-18T16:50:38.612Z,95904.09
2019-03-18T16:53:08.629Z,95906.74
2019-03-18T16:55:38.727Z,95900.25
2019-03-18T16:58:08.657Z,95902.26
2019-03-18T17:00:38.558Z,95914.52
2019-03-18T17:03:08.390Z,95906.38
2019-03-18T17:05:38.294Z,95905.91
2019-03-18T17:08:09.754Z,95899.76
2019-03-18T17:10:39.327Z,95904.09
2019-03-18T17:13:08.771Z,95915.02
2019-03-18T17:15:38.267Z,95913.02
2019-03-18T17:18:07.735Z,95921.55
2019-03-18T17:20:37.205Z,95919.54
2019-03-18T17:23:06.655Z,95927.09
2019-03-18T17:25:37.155Z,95921.31
2019-03-18T17:28:06.679Z,95926.14
2019-03-18T17:30:36.131Z,95924.09
2019-03-18T17:33:05.631Z,95922.13
2019-03-18T17:35:35.092Z,95926.75
2019-03-18T17:38:05.142Z,95931.11
2019-03-18T17:40:35.083Z,95936.07
2019-03-18T17:43:04.566Z,95951.32
2019-03-18T17:45:34.099Z,95951.27
2019-03-18T17:48:04.488Z,95950.59
2019-03-18T17:50:33.990Z,95951.91
2019-03-18T17:53:04.269Z,95953.06
2019-03-18T17:55:33.926Z,95959.28
2019-03-18T17:58:03.402Z,95964.38
2019-03-18T18:00:46.488Z,95957.85
2019-03-18T18:03:16.018Z,95957.46
2019-03-18T18:05:45.567Z,95965.79
2019-03-18T18:08:18.014Z,95965.89
2019-03-18T18:10:46.283Z,95972.73
2019-03-18T18:13:16.466Z,95975.48
2019-03-18T18:15:46.575Z,95982.60
2019-03-18T18:18:16.487Z,95978.64
2019-03-18T18:20:46.416Z,95979.47
2019-03-18T18:23:16.213Z,95977.04
2019-03-18T18:25:46.128Z,95983.33
2019-03-18T18:28:16.060Z,95981.72
2019-03-18T18:30:45.974Z,95981.78
2019-03-18T18:33:15.986Z,95980.45
2019-03-18T18:35:45.999Z,95984.75
2019-03-18T18:38:16.430Z,95989.32
2019-03-18T18:40:46.558Z,95992.56
2019-03-18T18:43:16.463Z,95997.86
2019-03-18T18:45:46.592Z,95997.66
2019-03-18T18:48:16.807Z,96000.11
2019-03-18T18:50:46.832Z,96004.28
2019-03-18T18:53:25.588Z,96007.95
2019-03-18T18:55:48.016Z,96003.88
2019-03-18T18:58:17.913Z,96006.52
2019-03-18T19:00:49.977Z,96007.52
2019-03-18T19:03:19.995Z,96009.99
2019-03-18T19:05:49.915Z,96007.25
2019-03-18T19:08:20.851Z,96008.36
2019-03-18T19:10:51.059Z,96011.11
2019-03-18T19:13:20.975Z,96017.12
2019-03-18T19:15:50.787Z,96023.55
2019-03-18T19:18:20.601Z,96025.77
2019-03-18T19:20:50.517Z,96022.94
2019-03-18T19:23:20.330Z,96027.30
2019-03-18T19:25:50.348Z,96034.92
2019-03-18T19:28:19.820Z,96033.81
2019-03-18T19:30:49.387Z,96039.82
2019-03-18T19:33:18.833Z,96044.08
2019-03-18T19:35:48.450Z,96050.40
2019-03-18T19:38:17.879Z,96060.66
2019-03-18T19:40:47.350Z,96065.06
2019-03-18T19:43:16.838Z,96065.96
2019-03-18T19:45:46.307Z,96074.61
2019-03-18T19:48:15.782Z,96074.92
2019-03-18T19:50:45.239Z,96073.47
2019-03-18T19:53:14.736Z,96075.45
2019-03-18T19:55:44.228Z,96081.55
2019-03-18T19:58:14.232Z,96079.81
2019-03-18T20:00:44.164Z,96079.74
2019-03-18T20:03:14.573Z,96082.91
2019-03-18T20:05:44.389Z,96091.23
2019-03-18T20:08:14.412Z,96097.54
2019-03-18T20:10:44.302Z,96104.63
2019-03-18T20:13:13.750Z,96103.53
2019-03-18T20:15:43.275Z,96105.36
2019-03-18T20:18:12.766Z,96093.77
2019-03-18T20:20:42.232Z,96102.83
2019-03-18T20:23:11.762Z,96106.18
2019-03-18T20:25:41.273Z,96108.42
2019-03-18T20:28:10.754Z,96109.12
2019-03-18T20:30:40.260Z,96108.73
2019-03-18T20:33:09.714Z,96113.50
2019-03-18T20:35:39.300Z,96108.70
2019-03-18T20:38:08.776Z,96113.83
2019-03-18T20:40:38.397Z,96109.05
2019-03-18T20:43:08.425Z,96115.02
2019-03-18T20:45:38.358Z,96115.56
2019-03-18T20:48:08.241Z,96121.56
2019-03-18T20:50:38.260Z,96118.92
2019-03-18T20:53:07.675Z,96120.55
2019-03-18T20:55:37.170Z,96124.86
2019-03-18T20:58:06.649Z,96117.73
2019-03-18T21:00:36.140Z,96124.66
2019-03-18T21:03:05.753Z,96122.89
2019-03-18T21:05:35.243Z,96127.48
2019-03-18T21:08:04.807Z,96131.53
2019-03-18T21:10:34.264Z,96133.27
2019-03-18T21:13:03.736Z,96123.52
2019-03-18T21:15:33.254Z,96126.52
2019-03-18T21:18:02.714Z,96128.23
2019-03-18T21:20:32.239Z,96134.34
2019-03-18T21:23:02.859Z,96143.20
2019-03-18T21:25:32.744Z,96144.31
2019-03-18T21:28:02.795Z,96146.13
2019-03-18T21:30:32.712Z,96137.59
2019-03-18T21:33:02.656Z,96137.13
2019-03-18T21:35:32.645Z,96143.30
2019-03-18T21:38:02.682Z,96134.88
2019-03-18T21:40:32.684Z,96135.37
2019-03-18T21:43:02.711Z,96130.80
2019-03-18T21:45:32.816Z,96137.31
2019-03-18T21:48:02.740Z,96137.30
2019-03-18T21:50:32.650Z,96134.16
2019-03-18T21:53:02.462Z,96133.33
2019-03-18T21:55:32.274Z,96134.98
2019-03-18T21:58:02.207Z,96129.80
2019-03-18T22:00:32.312Z,96132.23
2019-03-18T22:03:02.341Z,96131.63
2019-03-18T22:05:32.360Z,96133.25
2019-03-18T22:08:02.368Z,96143.30
2019-03-18T22:10:32.486Z,96151.44
2019-03-18T22:13:02.614Z,96146.66
2019-03-18T22:15:32.519Z,96145.66
2019-03-18T22:18:02.457Z,96144.73
2019-03-18T22:20:32.668Z,96144.44
2019-03-18T22:23:02.696Z,96160.18
2019-03-18T22:25:34.658Z,96158.09
2019-03-18T22:28:23.246Z,96157.88
2019-03-18T22:31:12.019Z,96153.22
2019-03-18T22:34:00.810Z,96156.66
2019-03-18T22:36:49.586Z,96150.34
2019-03-18T22:39:38.384Z,96157.91
2019-03-18T22:42:27.150Z,96151.30
2019-03-18T22:45:35.688Z,96075.91
2019-03-18T22:48:24.469Z,96153.30
2019-03-18T22:51:13.307Z,96169.24
2019-03-18T22:54:02.121Z,96161.66
2019-03-18T23:03:28.152Z,96086.53
2019-03-18T23:06:16.918Z,96164.14
2019-03-18T23:09:26.609Z,96166.95
2019-03-18T23:12:15.375Z,96140.67
2019-03-18T23:21:16.145Z,96165.52
2019-03-18T23:24:04.933Z,96181.50
2019-03-18T23:26:53.702Z,96166.45
2019-03-18T23:29:42.480Z,96162.55
2019-03-18T23:32:31.247Z,96170.78
2019-03-18T23:35:20.026Z,96178.91
2019-03-18T23:38:08.850Z,96085.84
2019-03-18T23:40:57.591Z,96169.71
2019-03-18T23:43:46.380Z,96086.58
2019-03-18T23:49:42.894Z,96092.28
2019-03-18T23:52:31.671Z,96080.31
